sensor_id;sensor_type;location;lat;lon;timestamp;P1;durP1;ratioP1;P2;durP2;ratioP2
10550;SDS011;5324;50.684;3.862;2023-04-24T00:01:51;12.90;;;7.27;;
10550;SDS011;5324;50.684;3.862;2023-04-24T00:04:18;8.70;;;6.60;;
10550;SDS011;5324;50.684;3.862;2023-04-24T00:06:45;8.37;;;6.80;;
10550;SDS011;5324;50.684;3.862;2023-04-24T00:09:14;9.87;;;6.73;;
10550;SDS011;5324;50.684;3.862;2023-04-24T00:11:40;13.93;;;7.37;;
10550;SDS011;5324;50.684;3.862;2023-04-24T00:14:06;9.23;;;7.13;;
10550;SDS011;5324;50.684;3.862;2023-04-24T00:16:32;13.27;;;7.80;;
10550;SDS011;5324;50.684;3.862;2023-04-24T00:18:58;13.73;;;8.17;;
10550;SDS011;5324;50.684;3.862;2023-04-24T00:21:25;13.20;;;6.90;;
10550;SDS011;5324;50.684;3.862;2023-04-24T00:23:52;11.57;;;7.13;;
10550;SDS011;5324;50.684;3.862;2023-04-24T00:26:18;9.10;;;6.93;;
10550;SDS011;5324;50.684;3.862;2023-04-24T00:28:44;11.33;;;7.30;;
10550;SDS011;5324;50.684;3.862;2023-04-24T00:31:10;9.37;;;7.20;;
10550;SDS011;5324;50.684;3.862;2023-04-24T00:33:36;9.60;;;7.07;;
10550;SDS011;5324;50.684;3.862;2023-04-24T00:36:02;10.73;;;6.90;;
10550;SDS011;5324;50.684;3.862;2023-04-24T00:38:28;10.20;;;6.33;;
10550;SDS011;5324;50.684;3.862;2023-04-24T00:40:54;12.27;;;6.87;;
10550;SDS011;5324;50.684;3.862;2023-04-24T00:43:21;8.87;;;6.40;;
10550;SDS011;5324;50.684;3.862;2023-04-24T00:45:47;11.10;;;6.27;;
10550;SDS011;5324;50.684;3.862;2023-04-24T00:48:13;9.60;;;6.40;;
10550;SDS011;5324;50.684;3.862;2023-04-24T00:50:39;10.47;;;6.17;;
10550;SDS011;5324;50.684;3.862;2023-04-24T00:53:05;8.97;;;6.17;;
10550;SDS011;5324;50.684;3.862;2023-04-24T00:55:31;8.53;;;6.17;;
10550;SDS011;5324;50.684;3.862;2023-04-24T00:57:57;10.17;;;6.07;;
10550;SDS011;5324;50.684;3.862;2023-04-24T01:00:23;8.90;;;5.13;;
10550;SDS011;5324;50.684;3.862;2023-04-24T01:02:50;9.73;;;6.30;;
10550;SDS011;5324;50.684;3.862;2023-04-24T01:05:18;9.73;;;5.87;;
10550;SDS011;5324;50.684;3.862;2023-04-24T01:07:44;8.77;;;5.33;;
10550;SDS011;5324;50.684;3.862;2023-04-24T01:10:13;8.13;;;5.63;;
10550;SDS011;5324;50.684;3.862;2023-04-24T01:12:39;9.50;;;5.50;;
10550;SDS011;5324;50.684;3.862;2023-04-24T01:15:07;8.67;;;5.27;;
10550;SDS011;5324;50.684;3.862;2023-04-24T01:17:33;8.23;;;5.60;;
10550;SDS011;5324;50.684;3.862;2023-04-24T01:20:00;11.33;;;6.37;;
10550;SDS011;5324;50.684;3.862;2023-04-24T01:22:27;9.87;;;5.53;;
10550;SDS011;5324;50.684;3.862;2023-04-24T01:24:53;10.23;;;5.77;;
10550;SDS011;5324;50.684;3.862;2023-04-24T01:27:19;7.50;;;5.77;;
10550;SDS011;5324;50.684;3.862;2023-04-24T01:29:45;9.30;;;6.00;;
10550;SDS011;5324;50.684;3.862;2023-04-24T01:32:14;10.40;;;5.87;;
10550;SDS011;5324;50.684;3.862;2023-04-24T01:34:40;10.50;;;5.03;;
10550;SDS011;5324;50.684;3.862;2023-04-24T01:37:06;7.57;;;5.17;;
10550;SDS011;5324;50.684;3.862;2023-04-24T01:39:32;11.23;;;5.90;;
10550;SDS011;5324;50.684;3.862;2023-04-24T01:41:58;10.47;;;5.90;;
10550;SDS011;5324;50.684;3.862;2023-04-24T01:44:24;7.10;;;5.57;;
10550;SDS011;5324;50.684;3.862;2023-04-24T01:46:51;7.27;;;5.87;;
10550;SDS011;5324;50.684;3.862;2023-04-24T01:49:18;11.33;;;5.70;;
10550;SDS011;5324;50.684;3.862;2023-04-24T01:51:45;12.30;;;6.03;;
10550;SDS011;5324;50.684;3.862;2023-04-24T01:54:12;7.90;;;5.33;;
10550;SDS011;5324;50.684;3.862;2023-04-24T01:56:41;6.90;;;5.60;;
10550;SDS011;5324;50.684;3.862;2023-04-24T01:59:09;8.37;;;5.20;;
10550;SDS011;5324;50.684;3.862;2023-04-24T02:01:36;8.53;;;5.23;;
10550;SDS011;5324;50.684;3.862;2023-04-24T02:04:02;8.40;;;5.13;;
10550;SDS011;5324;50.684;3.862;2023-04-24T02:06:28;6.87;;;4.70;;
10550;SDS011;5324;50.684;3.862;2023-04-24T02:08:56;9.13;;;5.27;;
10550;SDS011;5324;50.684;3.862;2023-04-24T02:11:22;8.27;;;4.83;;
10550;SDS011;5324;50.684;3.862;2023-04-24T02:13:48;7.77;;;5.20;;
10550;SDS011;5324;50.684;3.862;2023-04-24T02:16:15;6.83;;;4.70;;
10550;SDS011;5324;50.684;3.862;2023-04-24T02:18:41;12.83;;;5.23;;
10550;SDS011;5324;50.684;3.862;2023-04-24T02:21:07;7.83;;;4.67;;
10550;SDS011;5324;50.684;3.862;2023-04-24T02:23:33;7.33;;;4.23;;
10550;SDS011;5324;50.684;3.862;2023-04-24T02:25:59;5.80;;;4.43;;
10550;SDS011;5324;50.684;3.862;2023-04-24T02:28:25;5.60;;;3.97;;
10550;SDS011;5324;50.684;3.862;2023-04-24T02:30:51;6.23;;;4.07;;
10550;SDS011;5324;50.684;3.862;2023-04-24T02:33:17;7.73;;;4.20;;
10550;SDS011;5324;50.684;3.862;2023-04-24T02:35:43;5.97;;;4.47;;
10550;SDS011;5324;50.684;3.862;2023-04-24T02:38:09;7.67;;;4.27;;
10550;SDS011;5324;50.684;3.862;2023-04-24T02:40:35;5.87;;;3.90;;
10550;SDS011;5324;50.684;3.862;2023-04-24T02:43:01;7.53;;;4.30;;
10550;SDS011;5324;50.684;3.862;2023-04-24T02:45:27;6.13;;;4.30;;
10550;SDS011;5324;50.684;3.862;2023-04-24T02:47:53;6.37;;;4.10;;
10550;SDS011;5324;50.684;3.862;2023-04-24T02:50:19;7.20;;;4.47;;
10550;SDS011;5324;50.684;3.862;2023-04-24T02:52:45;7.97;;;4.97;;
10550;SDS011;5324;50.684;3.862;2023-04-24T02:55:11;12.87;;;5.87;;
10550;SDS011;5324;50.684;3.862;2023-04-24T02:57:37;11.80;;;5.10;;
10550;SDS011;5324;50.684;3.862;2023-04-24T03:00:03;7.77;;;4.60;;
10550;SDS011;5324;50.684;3.862;2023-04-24T03:02:32;7.53;;;4.70;;
10550;SDS011;5324;50.684;3.862;2023-04-24T03:04:58;7.03;;;4.93;;
10550;SDS011;5324;50.684;3.862;2023-04-24T03:07:24;9.47;;;5.57;;
10550;SDS011;5324;50.684;3.862;2023-04-24T03:09:50;6.27;;;4.83;;
10550;SDS011;5324;50.684;3.862;2023-04-24T03:12:16;7.37;;;4.53;;
10550;SDS011;5324;50.684;3.862;2023-04-24T03:14:43;8.10;;;5.10;;
10550;SDS011;5324;50.684;3.862;2023-04-24T03:17:09;7.67;;;5.07;;
10550;SDS011;5324;50.684;3.862;2023-04-24T03:19:35;8.90;;;6.03;;
10550;SDS011;5324;50.684;3.862;2023-04-24T03:22:04;8.43;;;6.23;;
10550;SDS011;5324;50.684;3.862;2023-04-24T03:24:30;6.77;;;5.60;;
10550;SDS011;5324;50.684;3.862;2023-04-24T03:26:56;7.73;;;5.63;;
10550;SDS011;5324;50.684;3.862;2023-04-24T03:29:22;5.50;;;5.00;;
10550;SDS011;5324;50.684;3.862;2023-04-24T03:31:48;7.77;;;5.80;;
10550;SDS011;5324;50.684;3.862;2023-04-24T03:34:14;8.73;;;6.10;;
10550;SDS011;5324;50.684;3.862;2023-04-24T03:36:40;9.23;;;5.77;;
10550;SDS011;5324;50.684;3.862;2023-04-24T03:39:06;6.50;;;5.47;;
10550;SDS011;5324;50.684;3.862;2023-04-24T03:41:32;8.00;;;5.30;;
10550;SDS011;5324;50.684;3.862;2023-04-24T03:43:58;5.50;;;5.00;;
10550;SDS011;5324;50.684;3.862;2023-04-24T03:46:25;5.87;;;4.77;;
10550;SDS011;5324;50.684;3.862;2023-04-24T03:48:51;5.67;;;4.60;;
10550;SDS011;5324;50.684;3.862;2023-04-24T03:51:17;5.53;;;4.83;;
10550;SDS011;5324;50.684;3.862;2023-04-24T03:53:43;7.50;;;4.80;;
10550;SDS011;5324;50.684;3.862;2023-04-24T03:56:09;5.90;;;4.77;;
10550;SDS011;5324;50.684;3.862;2023-04-24T03:58:35;5.10;;;4.33;;
10550;SDS011;5324;50.684;3.862;2023-04-24T04:01:01;5.50;;;4.60;;
10550;SDS011;5324;50.684;3.862;2023-04-24T04:03:27;5.53;;;4.53;;
10550;SDS011;5324;50.684;3.862;2023-04-24T04:05:53;6.83;;;5.13;;
10550;SDS011;5324;50.684;3.862;2023-04-24T04:08:19;6.60;;;5.77;;
10550;SDS011;5324;50.684;3.862;2023-04-24T04:10:45;7.03;;;5.67;;
10550;SDS011;5324;50.684;3.862;2023-04-24T04:13:11;5.33;;;4.80;;
10550;SDS011;5324;50.684;3.862;2023-04-24T04:15:37;5.20;;;4.70;;
10550;SDS011;5324;50.684;3.862;2023-04-24T04:18:03;5.10;;;4.60;;
10550;SDS011;5324;50.684;3.862;2023-04-24T04:20:30;4.77;;;4.27;;
10550;SDS011;5324;50.684;3.862;2023-04-24T04:22:56;5.27;;;4.73;;
10550;SDS011;5324;50.684;3.862;2023-04-24T04:25:22;5.83;;;5.23;;
10550;SDS011;5324;50.684;3.862;2023-04-24T04:27:48;8.63;;;6.00;;
10550;SDS011;5324;50.684;3.862;2023-04-24T04:30:16;8.43;;;5.97;;
10550;SDS011;5324;50.684;3.862;2023-04-24T04:32:43;8.53;;;6.97;;
10550;SDS011;5324;50.684;3.862;2023-04-24T04:35:10;8.40;;;6.70;;
10550;SDS011;5324;50.684;3.862;2023-04-24T04:37:36;8.17;;;7.37;;
10550;SDS011;5324;50.684;3.862;2023-04-24T04:40:03;9.30;;;6.73;;
10550;SDS011;5324;50.684;3.862;2023-04-24T04:42:32;8.93;;;7.30;;
10550;SDS011;5324;50.684;3.862;2023-04-24T04:44:59;10.60;;;7.27;;
10550;SDS011;5324;50.684;3.862;2023-04-24T04:47:25;12.70;;;7.97;;
10550;SDS011;5324;50.684;3.862;2023-04-24T04:49:53;8.73;;;7.07;;
10550;SDS011;5324;50.684;3.862;2023-04-24T04:52:19;10.13;;;6.90;;
10550;SDS011;5324;50.684;3.862;2023-04-24T04:54:49;11.00;;;7.20;;
10550;SDS011;5324;50.684;3.862;2023-04-24T04:57:15;10.53;;;7.27;;
10550;SDS011;5324;50.684;3.862;2023-04-24T04:59:41;10.90;;;7.17;;
10550;SDS011;5324;50.684;3.862;2023-04-24T05:02:08;14.60;;;7.97;;
10550;SDS011;5324;50.684;3.862;2023-04-24T05:04:34;13.10;;;7.60;;
10550;SDS011;5324;50.684;3.862;2023-04-24T05:07:00;9.87;;;6.80;;
10550;SDS011;5324;50.684;3.862;2023-04-24T05:09:26;10.17;;;7.10;;
10550;SDS011;5324;50.684;3.862;2023-04-24T05:11:54;11.97;;;7.10;;
10550;SDS011;5324;50.684;3.862;2023-04-24T05:14:20;12.30;;;7.20;;
10550;SDS011;5324;50.684;3.862;2023-04-24T05:16:46;11.50;;;8.00;;
10550;SDS011;5324;50.684;3.862;2023-04-24T05:19:12;11.57;;;8.17;;
10550;SDS011;5324;50.684;3.862;2023-04-24T05:21:40;14.30;;;7.57;;
10550;SDS011;5324;50.684;3.862;2023-04-24T05:24:06;12.73;;;7.50;;
10550;SDS011;5324;50.684;3.862;2023-04-24T05:26:32;11.77;;;7.70;;
10550;SDS011;5324;50.684;3.862;2023-04-24T05:28:58;11.93;;;7.67;;
10550;SDS011;5324;50.684;3.862;2023-04-24T05:31:25;13.27;;;8.00;;
10550;SDS011;5324;50.684;3.862;2023-04-24T05:33:51;11.13;;;7.83;;
10550;SDS011;5324;50.684;3.862;2023-04-24T05:36:17;10.20;;;7.97;;
10550;SDS011;5324;50.684;3.862;2023-04-24T05:38:43;15.40;;;9.53;;
10550;SDS011;5324;50.684;3.862;2023-04-24T05:41:09;13.13;;;8.90;;
10550;SDS011;5324;50.684;3.862;2023-04-24T05:43:35;13.90;;;9.50;;
10550;SDS011;5324;50.684;3.862;2023-04-24T05:46:01;14.47;;;9.17;;
10550;SDS011;5324;50.684;3.862;2023-04-24T05:48:27;15.53;;;10.27;;
10550;SDS011;5324;50.684;3.862;2023-04-24T05:50:53;16.97;;;10.60;;
10550;SDS011;5324;50.684;3.862;2023-04-24T05:53:19;16.33;;;10.37;;
10550;SDS011;5324;50.684;3.862;2023-04-24T05:55:45;10.40;;;9.27;;
10550;SDS011;5324;50.684;3.862;2023-04-24T05:58:12;13.90;;;10.13;;
10550;SDS011;5324;50.684;3.862;2023-04-24T06:00:38;15.10;;;8.83;;
10550;SDS011;5324;50.684;3.862;2023-04-24T06:03:07;12.43;;;8.03;;
10550;SDS011;5324;50.684;3.862;2023-04-24T06:05:33;12.77;;;8.53;;
10550;SDS011;5324;50.684;3.862;2023-04-24T06:08:00;9.67;;;8.50;;
10550;SDS011;5324;50.684;3.862;2023-04-24T06:10:26;15.03;;;8.17;;
10550;SDS011;5324;50.684;3.862;2023-04-24T06:12:52;12.77;;;8.17;;
10550;SDS011;5324;50.684;3.862;2023-04-24T06:15:21;13.17;;;7.80;;
10550;SDS011;5324;50.684;3.862;2023-04-24T06:17:47;10.10;;;7.97;;
10550;SDS011;5324;50.684;3.862;2023-04-24T06:20:13;12.80;;;7.70;;
10550;SDS011;5324;50.684;3.862;2023-04-24T06:22:39;14.00;;;8.00;;
10550;SDS011;5324;50.684;3.862;2023-04-24T06:25:05;11.33;;;7.63;;
10550;SDS011;5324;50.684;3.862;2023-04-24T06:27:32;13.27;;;8.27;;
10550;SDS011;5324;50.684;3.862;2023-04-24T06:29:58;13.03;;;8.37;;
10550;SDS011;5324;50.684;3.862;2023-04-24T06:32:24;13.03;;;7.90;;
10550;SDS011;5324;50.684;3.862;2023-04-24T06:34:51;9.93;;;7.70;;
10550;SDS011;5324;50.684;3.862;2023-04-24T06:37:18;15.60;;;9.33;;
10550;SDS011;5324;50.684;3.862;2023-04-24T06:39:44;12.40;;;9.40;;
10550;SDS011;5324;50.684;3.862;2023-04-24T06:42:10;11.67;;;8.43;;
10550;SDS011;5324;50.684;3.862;2023-04-24T06:44:36;14.83;;;9.03;;
10550;SDS011;5324;50.684;3.862;2023-04-24T06:47:06;13.83;;;8.30;;
10550;SDS011;5324;50.684;3.862;2023-04-24T06:49:33;13.40;;;9.10;;
10550;SDS011;5324;50.684;3.862;2023-04-24T06:51:59;13.17;;;8.70;;
10550;SDS011;5324;50.684;3.862;2023-04-24T06:54:25;13.53;;;9.13;;
10550;SDS011;5324;50.684;3.862;2023-04-24T06:56:51;11.23;;;8.60;;
10550;SDS011;5324;50.684;3.862;2023-04-24T06:59:17;12.50;;;8.67;;
10550;SDS011;5324;50.684;3.862;2023-04-24T07:01:44;14.27;;;10.07;;
10550;SDS011;5324;50.684;3.862;2023-04-24T07:04:10;10.33;;;8.70;;
10550;SDS011;5324;50.684;3.862;2023-04-24T07:06:37;13.33;;;9.27;;
10550;SDS011;5324;50.684;3.862;2023-04-24T07:09:04;15.43;;;8.33;;
10550;SDS011;5324;50.684;3.862;2023-04-24T07:11:30;14.03;;;9.13;;
10550;SDS011;5324;50.684;3.862;2023-04-24T07:13:56;14.37;;;10.17;;
10550;SDS011;5324;50.684;3.862;2023-04-24T07:16:22;12.30;;;9.57;;
10550;SDS011;5324;50.684;3.862;2023-04-24T07:18:48;15.53;;;9.60;;
10550;SDS011;5324;50.684;3.862;2023-04-24T07:21:14;12.50;;;9.27;;
10550;SDS011;5324;50.684;3.862;2023-04-24T07:23:40;16.73;;;9.53;;
10550;SDS011;5324;50.684;3.862;2023-04-24T07:26:06;14.17;;;9.67;;
10550;SDS011;5324;50.684;3.862;2023-04-24T07:28:32;13.93;;;9.33;;
10550;SDS011;5324;50.684;3.862;2023-04-24T07:30:58;12.97;;;9.47;;
10550;SDS011;5324;50.684;3.862;2023-04-24T07:33:25;14.63;;;9.30;;
10550;SDS011;5324;50.684;3.862;2023-04-24T07:35:51;17.70;;;9.33;;
10550;SDS011;5324;50.684;3.862;2023-04-24T07:38:17;16.00;;;9.33;;
10550;SDS011;5324;50.684;3.862;2023-04-24T07:40:47;17.93;;;9.63;;
10550;SDS011;5324;50.684;3.862;2023-04-24T07:43:13;14.73;;;8.20;;
10550;SDS011;5324;50.684;3.862;2023-04-24T07:45:39;12.73;;;9.10;;
10550;SDS011;5324;50.684;3.862;2023-04-24T07:48:06;15.53;;;7.77;;
10550;SDS011;5324;50.684;3.862;2023-04-24T07:50:33;10.17;;;7.93;;
10550;SDS011;5324;50.684;3.862;2023-04-24T07:53:00;10.83;;;7.00;;
10550;SDS011;5324;50.684;3.862;2023-04-24T07:55:27;11.07;;;6.60;;
10550;SDS011;5324;50.684;3.862;2023-04-24T07:57:53;9.47;;;6.17;;
10550;SDS011;5324;50.684;3.862;2023-04-24T08:00:19;12.03;;;7.23;;
10550;SDS011;5324;50.684;3.862;2023-04-24T08:02:45;11.47;;;7.23;;
10550;SDS011;5324;50.684;3.862;2023-04-24T08:05:11;9.70;;;6.53;;
10550;SDS011;5324;50.684;3.862;2023-04-24T08:07:37;11.30;;;7.90;;
10550;SDS011;5324;50.684;3.862;2023-04-24T08:10:04;10.70;;;6.53;;
10550;SDS011;5324;50.684;3.862;2023-04-24T08:12:30;12.53;;;7.47;;
10550;SDS011;5324;50.684;3.862;2023-04-24T08:14:56;11.27;;;8.07;;
10550;SDS011;5324;50.684;3.862;2023-04-24T08:17:22;12.17;;;7.83;;
10550;SDS011;5324;50.684;3.862;2023-04-24T08:19:48;12.27;;;7.73;;
10550;SDS011;5324;50.684;3.862;2023-04-24T08:22:16;10.33;;;7.00;;
10550;SDS011;5324;50.684;3.862;2023-04-24T08:24:43;8.30;;;6.73;;
10550;SDS011;5324;50.684;3.862;2023-04-24T08:27:09;14.30;;;6.43;;
10550;SDS011;5324;50.684;3.862;2023-04-24T08:29:35;11.57;;;6.27;;
10550;SDS011;5324;50.684;3.862;2023-04-24T08:32:02;11.77;;;6.57;;
10550;SDS011;5324;50.684;3.862;2023-04-24T08:34:28;10.07;;;6.50;;
10550;SDS011;5324;50.684;3.862;2023-04-24T08:36:54;11.73;;;6.60;;
10550;SDS011;5324;50.684;3.862;2023-04-24T08:39:20;11.00;;;6.90;;
10550;SDS011;5324;50.684;3.862;2023-04-24T08:41:46;10.90;;;8.70;;
10550;SDS011;5324;50.684;3.862;2023-04-24T08:44:14;14.17;;;7.67;;
10550;SDS011;5324;50.684;3.862;2023-04-24T08:46:42;12.93;;;7.17;;
10550;SDS011;5324;50.684;3.862;2023-04-24T08:49:10;10.97;;;5.67;;
10550;SDS011;5324;50.684;3.862;2023-04-24T08:51:36;8.37;;;6.00;;
10550;SDS011;5324;50.684;3.862;2023-04-24T08:54:02;7.40;;;4.70;;
10550;SDS011;5324;50.684;3.862;2023-04-24T08:56:29;6.10;;;4.30;;
10550;SDS011;5324;50.684;3.862;2023-04-24T08:58:56;8.33;;;4.70;;
10550;SDS011;5324;50.684;3.862;2023-04-24T09:01:22;8.83;;;5.07;;
10550;SDS011;5324;50.684;3.862;2023-04-24T09:03:49;9.30;;;6.87;;
10550;SDS011;5324;50.684;3.862;2023-04-24T09:06:16;11.07;;;7.73;;
10550;SDS011;5324;50.684;3.862;2023-04-24T09:08:43;8.83;;;7.23;;
10550;SDS011;5324;50.684;3.862;2023-04-24T09:11:10;9.87;;;7.57;;
10550;SDS011;5324;50.684;3.862;2023-04-24T09:13:37;8.83;;;7.37;;
10550;SDS011;5324;50.684;3.862;2023-04-24T09:16:03;9.83;;;7.03;;
10550;SDS011;5324;50.684;3.862;2023-04-24T09:18:29;8.67;;;6.67;;
10550;SDS011;5324;50.684;3.862;2023-04-24T09:21:03;8.43;;;6.63;;
10550;SDS011;5324;50.684;3.862;2023-04-24T09:23:30;17.37;;;7.60;;
10550;SDS011;5324;50.684;3.862;2023-04-24T09:25:57;14.17;;;7.10;;
10550;SDS011;5324;50.684;3.862;2023-04-24T09:28:46;8.97;;;6.37;;
10550;SDS011;5324;50.684;3.862;2023-04-24T09:31:14;10.80;;;5.47;;
10550;SDS011;5324;50.684;3.862;2023-04-24T09:33:59;6.77;;;5.40;;
10550;SDS011;5324;50.684;3.862;2023-04-24T09:36:30;7.87;;;5.37;;
10550;SDS011;5324;50.684;3.862;2023-04-24T09:39:02;9.10;;;6.20;;
10550;SDS011;5324;50.684;3.862;2023-04-24T09:41:29;13.37;;;7.23;;
10550;SDS011;5324;50.684;3.862;2023-04-24T09:43:55;10.57;;;7.30;;
10550;SDS011;5324;50.684;3.862;2023-04-24T09:46:29;10.80;;;6.57;;
10550;SDS011;5324;50.684;3.862;2023-04-24T09:48:55;11.67;;;7.40;;
10550;SDS011;5324;50.684;3.862;2023-04-24T09:51:34;10.77;;;7.07;;
10550;SDS011;5324;50.684;3.862;2023-04-24T09:54:01;11.30;;;7.73;;
10550;SDS011;5324;50.684;3.862;2023-04-24T09:56:28;9.73;;;7.13;;
10550;SDS011;5324;50.684;3.862;2023-04-24T09:59:04;10.60;;;7.07;;
10550;SDS011;5324;50.684;3.862;2023-04-24T10:01:31;12.73;;;8.67;;
10550;SDS011;5324;50.684;3.862;2023-04-24T10:03:57;10.97;;;8.17;;
10550;SDS011;5324;50.684;3.862;2023-04-24T10:06:29;13.37;;;8.43;;
10550;SDS011;5324;50.684;3.862;2023-04-24T10:08:55;10.73;;;8.43;;
10550;SDS011;5324;50.684;3.862;2023-04-24T10:11:23;11.67;;;8.43;;
10550;SDS011;5324;50.684;3.862;2023-04-24T10:13:49;10.03;;;7.83;;
10550;SDS011;5324;50.684;3.862;2023-04-24T10:16:16;11.83;;;8.37;;
10550;SDS011;5324;50.684;3.862;2023-04-24T10:18:42;11.57;;;8.47;;
10550;SDS011;5324;50.684;3.862;2023-04-24T10:21:08;11.30;;;8.17;;
10550;SDS011;5324;50.684;3.862;2023-04-24T10:23:35;11.77;;;8.57;;
10550;SDS011;5324;50.684;3.862;2023-04-24T10:26:01;10.73;;;8.60;;
10550;SDS011;5324;50.684;3.862;2023-04-24T10:28:27;15.13;;;8.70;;
10550;SDS011;5324;50.684;3.862;2023-04-24T10:30:55;10.00;;;7.67;;
10550;SDS011;5324;50.684;3.862;2023-04-24T10:33:22;12.50;;;8.20;;
10550;SDS011;5324;50.684;3.862;2023-04-24T10:35:48;11.97;;;7.77;;
10550;SDS011;5324;50.684;3.862;2023-04-24T10:38:17;11.33;;;8.07;;
10550;SDS011;5324;50.684;3.862;2023-04-24T10:40:44;9.37;;;7.57;;
10550;SDS011;5324;50.684;3.862;2023-04-24T10:43:10;11.47;;;7.30;;
10550;SDS011;5324;50.684;3.862;2023-04-24T10:45:42;9.03;;;7.33;;
10550;SDS011;5324;50.684;3.862;2023-04-24T10:48:26;7.97;;;7.17;;
10550;SDS011;5324;50.684;3.862;2023-04-24T10:50:52;10.90;;;7.43;;
10550;SDS011;5324;50.684;3.862;2023-04-24T10:58:11;8.57;;;6.40;;
10550;SDS011;5324;50.684;3.862;2023-04-24T11:00:40;8.90;;;7.07;;
10550;SDS011;5324;50.684;3.862;2023-04-24T11:03:07;8.70;;;6.60;;
10550;SDS011;5324;50.684;3.862;2023-04-24T11:05:53;10.83;;;7.37;;
10550;SDS011;5324;50.684;3.862;2023-04-24T11:08:27;10.50;;;7.90;;
10550;SDS011;5324;50.684;3.862;2023-04-24T11:16:26;10.70;;;7.10;;
10550;SDS011;5324;50.684;3.862;2023-04-24T11:21:46;8.47;;;6.50;;
10550;SDS011;5324;50.684;3.862;2023-04-24T11:26:54;8.83;;;7.07;;
10550;SDS011;5324;50.684;3.862;2023-04-24T11:29:21;9.53;;;7.90;;
10550;SDS011;5324;50.684;3.862;2023-04-24T11:31:48;11.20;;;7.10;;
10550;SDS011;5324;50.684;3.862;2023-04-24T11:34:17;7.40;;;6.50;;
10550;SDS011;5324;50.684;3.862;2023-04-24T11:36:44;9.03;;;7.33;;
10550;SDS011;5324;50.684;3.862;2023-04-24T11:39:10;7.97;;;7.17;;
10550;SDS011;5324;50.684;3.862;2023-04-24T11:41:37;9.60;;;7.40;;
10550;SDS011;5324;50.684;3.862;2023-04-24T11:44:03;11.67;;;7.47;;
10550;SDS011;5324;50.684;3.862;2023-04-24T11:46:31;10.03;;;8.50;;
10550;SDS011;5324;50.684;3.862;2023-04-24T11:48:57;8.13;;;7.27;;
10550;SDS011;5324;50.684;3.862;2023-04-24T11:51:24;9.63;;;7.23;;
10550;SDS011;5324;50.684;3.862;2023-04-24T11:53:51;9.60;;;7.27;;
10550;SDS011;5324;50.684;3.862;2023-04-24T11:56:18;8.23;;;7.13;;
10550;SDS011;5324;50.684;3.862;2023-04-24T11:58:44;11.43;;;8.20;;
10550;SDS011;5324;50.684;3.862;2023-04-24T12:01:11;10.77;;;7.90;;
10550;SDS011;5324;50.684;3.862;2023-04-24T12:03:37;10.20;;;6.70;;
10550;SDS011;5324;50.684;3.862;2023-04-24T12:06:07;7.30;;;6.60;;
10550;SDS011;5324;50.684;3.862;2023-04-24T12:08:33;10.73;;;7.03;;
10550;SDS011;5324;50.684;3.862;2023-04-24T12:11:00;8.97;;;6.73;;
10550;SDS011;5324;50.684;3.862;2023-04-24T12:13:26;10.03;;;7.20;;
10550;SDS011;5324;50.684;3.862;2023-04-24T12:15:54;10.03;;;6.97;;
10550;SDS011;5324;50.684;3.862;2023-04-24T12:18:23;10.43;;;6.77;;
10550;SDS011;5324;50.684;3.862;2023-04-24T12:20:50;9.33;;;6.67;;
10550;SDS011;5324;50.684;3.862;2023-04-24T12:23:16;9.93;;;7.50;;
10550;SDS011;5324;50.684;3.862;2023-04-24T12:25:44;9.87;;;7.80;;
10550;SDS011;5324;50.684;3.862;2023-04-24T12:28:11;9.23;;;7.53;;
10550;SDS011;5324;50.684;3.862;2023-04-24T12:30:43;12.03;;;8.37;;
10550;SDS011;5324;50.684;3.862;2023-04-24T12:33:09;9.43;;;7.37;;
10550;SDS011;5324;50.684;3.862;2023-04-24T12:35:36;9.57;;;7.90;;
10550;SDS011;5324;50.684;3.862;2023-04-24T12:38:12;10.40;;;7.47;;
10550;SDS011;5324;50.684;3.862;2023-04-24T12:40:39;8.67;;;7.50;;
10550;SDS011;5324;50.684;3.862;2023-04-24T12:43:15;9.30;;;7.43;;
10550;SDS011;5324;50.684;3.862;2023-04-24T12:45:42;10.80;;;7.70;;
10550;SDS011;5324;50.684;3.862;2023-04-24T12:48:08;9.37;;;7.80;;
10550;SDS011;5324;50.684;3.862;2023-04-24T12:50:34;12.40;;;7.50;;
10550;SDS011;5324;50.684;3.862;2023-04-24T12:53:00;10.70;;;8.47;;
10550;SDS011;5324;50.684;3.862;2023-04-24T12:55:26;9.33;;;8.20;;
10550;SDS011;5324;50.684;3.862;2023-04-24T12:57:52;10.67;;;7.80;;
10550;SDS011;5324;50.684;3.862;2023-04-24T13:00:20;9.00;;;8.10;;
10550;SDS011;5324;50.684;3.862;2023-04-24T13:02:46;11.57;;;8.43;;
10550;SDS011;5324;50.684;3.862;2023-04-24T13:05:12;10.77;;;8.27;;
10550;SDS011;5324;50.684;3.862;2023-04-24T13:07:38;9.37;;;7.87;;
10550;SDS011;5324;50.684;3.862;2023-04-24T13:10:05;9.07;;;8.17;;
10550;SDS011;5324;50.684;3.862;2023-04-24T13:12:31;9.93;;;8.67;;
10550;SDS011;5324;50.684;3.862;2023-04-24T13:14:57;11.77;;;8.80;;
10550;SDS011;5324;50.684;3.862;2023-04-24T13:17:24;10.47;;;8.60;;
10550;SDS011;5324;50.684;3.862;2023-04-24T13:19:50;12.57;;;8.40;;
10550;SDS011;5324;50.684;3.862;2023-04-24T13:22:17;11.13;;;7.77;;
10550;SDS011;5324;50.684;3.862;2023-04-24T13:24:46;8.97;;;8.07;;
10550;SDS011;5324;50.684;3.862;2023-04-24T13:27:13;12.57;;;8.70;;
10550;SDS011;5324;50.684;3.862;2023-04-24T13:29:40;10.30;;;8.97;;
10550;SDS011;5324;50.684;3.862;2023-04-24T13:32:06;9.03;;;8.10;;
10550;SDS011;5324;50.684;3.862;2023-04-24T13:34:32;13.17;;;9.33;;
10550;SDS011;5324;50.684;3.862;2023-04-24T13:36:59;10.20;;;8.30;;
10550;SDS011;5324;50.684;3.862;2023-04-24T13:39:25;10.80;;;8.60;;
10550;SDS011;5324;50.684;3.862;2023-04-24T13:41:53;11.50;;;9.70;;
10550;SDS011;5324;50.684;3.862;2023-04-24T13:44:19;11.63;;;9.27;;
10550;SDS011;5324;50.684;3.862;2023-04-24T13:46:46;11.57;;;8.47;;
10550;SDS011;5324;50.684;3.862;2023-04-24T13:49:13;12.43;;;9.27;;
10550;SDS011;5324;50.684;3.862;2023-04-24T13:51:39;11.50;;;8.93;;
10550;SDS011;5324;50.684;3.862;2023-04-24T13:54:05;12.77;;;10.13;;
10550;SDS011;5324;50.684;3.862;2023-04-24T13:56:31;10.60;;;9.50;;
10550;SDS011;5324;50.684;3.862;2023-04-24T13:58:57;11.97;;;10.10;;
10550;SDS011;5324;50.684;3.862;2023-04-24T14:01:23;11.37;;;9.27;;
10550;SDS011;5324;50.684;3.862;2023-04-24T14:03:52;12.53;;;9.33;;
10550;SDS011;5324;50.684;3.862;2023-04-24T14:06:19;11.50;;;9.43;;
10550;SDS011;5324;50.684;3.862;2023-04-24T14:08:46;12.47;;;10.60;;
10550;SDS011;5324;50.684;3.862;2023-04-24T14:11:12;12.17;;;10.30;;
10550;SDS011;5324;50.684;3.862;2023-04-24T14:13:38;14.33;;;10.30;;
10550;SDS011;5324;50.684;3.862;2023-04-24T14:16:06;15.57;;;10.40;;
10550;SDS011;5324;50.684;3.862;2023-04-24T14:18:32;11.23;;;9.60;;
10550;SDS011;5324;50.684;3.862;2023-04-24T14:20:58;10.30;;;9.10;;
10550;SDS011;5324;50.684;3.862;2023-04-24T14:23:26;12.37;;;8.97;;
10550;SDS011;5324;50.684;3.862;2023-04-24T14:25:51;10.83;;;8.73;;
10550;SDS011;5324;50.684;3.862;2023-04-24T14:28:18;12.60;;;9.17;;
10550;SDS011;5324;50.684;3.862;2023-04-24T14:30:45;12.97;;;9.63;;
10550;SDS011;5324;50.684;3.862;2023-04-24T14:33:11;13.63;;;10.33;;
10550;SDS011;5324;50.684;3.862;2023-04-24T14:35:38;14.10;;;10.13;;
10550;SDS011;5324;50.684;3.862;2023-04-24T14:38:06;11.43;;;10.23;;
10550;SDS011;5324;50.684;3.862;2023-04-24T14:40:32;12.13;;;9.57;;
10550;SDS011;5324;50.684;3.862;2023-04-24T14:42:59;10.30;;;8.53;;
10550;SDS011;5324;50.684;3.862;2023-04-24T14:45:25;10.47;;;8.07;;
10550;SDS011;5324;50.684;3.862;2023-04-24T14:47:53;10.50;;;8.67;;
10550;SDS011;5324;50.684;3.862;2023-04-24T14:50:19;10.17;;;8.27;;
10550;SDS011;5324;50.684;3.862;2023-04-24T14:52:45;10.57;;;7.60;;
10550;SDS011;5324;50.684;3.862;2023-04-24T14:55:11;8.17;;;7.37;;
10550;SDS011;5324;50.684;3.862;2023-04-24T14:57:37;8.77;;;7.17;;
10550;SDS011;5324;50.684;3.862;2023-04-24T15:00:05;7.00;;;5.40;;
10550;SDS011;5324;50.684;3.862;2023-04-24T15:02:33;4.67;;;3.70;;
10550;SDS011;5324;50.684;3.862;2023-04-24T15:05:01;5.53;;;3.87;;
10550;SDS011;5324;50.684;3.862;2023-04-24T15:07:28;7.10;;;3.80;;